NE22 weather

Great Plains Regional Medical Center Heliport
North Platte, Nebraska, United States

Public forecast

Using degrees Fahrenheit for public forecast. Weather courtesy of forecast.io.

Closest aviation weather report (METAR) to Great Plains Regional Medical Center Heliport

Closest report is North Platte Regional Airport Lee Bird Field, 4.0 nm (7.3 km) E. Retrieved 2019/10/17 15:53 UTC (55 minutes ago):

KLBF 171553Z AUTO 00000KT 10SM CLR 11/02 A2983 RMK AO2 SLP103 T01060017

Closest aviation forecast (TAF) to Great Plains Regional Medical Center Heliport

Closest forecast is North Platte Regional Airport Lee Bird Field, 4.0 nm (7.3 km) E. Retrieved 2019/10/17 12:24 UTC (4 hours ago):

TAF KLBF 171122Z 1712/1812 00000KT P6SM FEW250 FM171700 17010KT P6SM FEW250 FM172000 14012G19KT P6SM SCT250 FM180000 14010KT P6SM SCT250 FM180500 12006KT P6SM FEW250